sensor_id;sensor_type;location;lat;lon;timestamp;P1;durP1;ratioP1;P2;durP2;ratioP2
18887;SDS011;9576;47.792;9.628;2023-03-23T00:00:36;9.75;;;4.60;;
18887;SDS011;9576;47.792;9.628;2023-03-23T00:03:39;9.07;;;3.50;;
18887;SDS011;9576;47.792;9.628;2023-03-23T00:06:43;8.68;;;4.03;;
18887;SDS011;9576;47.792;9.628;2023-03-23T00:09:47;8.40;;;3.90;;
18887;SDS011;9576;47.792;9.628;2023-03-23T00:12:53;14.52;;;4.57;;
18887;SDS011;9576;47.792;9.628;2023-03-23T00:15:56;10.00;;;3.73;;
18887;SDS011;9576;47.792;9.628;2023-03-23T00:19:00;8.25;;;3.80;;
18887;SDS011;9576;47.792;9.628;2023-03-23T00:22:04;8.40;;;3.83;;
18887;SDS011;9576;47.792;9.628;2023-03-23T00:25:08;6.50;;;3.58;;
18887;SDS011;9576;47.792;9.628;2023-03-23T00:28:10;19.80;;;3.75;;
18887;SDS011;9576;47.792;9.628;2023-03-23T00:31:13;24.75;;;3.72;;
18887;SDS011;9576;47.792;9.628;2023-03-23T00:34:16;9.50;;;4.15;;
18887;SDS011;9576;47.792;9.628;2023-03-23T00:37:19;15.68;;;4.10;;
18887;SDS011;9576;47.792;9.628;2023-03-23T00:40:24;9.05;;;3.90;;
18887;SDS011;9576;47.792;9.628;2023-03-23T00:43:26;12.32;;;4.55;;
18887;SDS011;9576;47.792;9.628;2023-03-23T00:46:28;25.63;;;3.45;;
18887;SDS011;9576;47.792;9.628;2023-03-23T00:49:30;15.15;;;3.78;;
18887;SDS011;9576;47.792;9.628;2023-03-23T00:52:34;7.40;;;3.80;;
18887;SDS011;9576;47.792;9.628;2023-03-23T00:55:39;13.75;;;3.97;;
18887;SDS011;9576;47.792;9.628;2023-03-23T00:58:41;10.15;;;3.70;;
18887;SDS011;9576;47.792;9.628;2023-03-23T01:01:43;19.90;;;4.65;;
18887;SDS011;9576;47.792;9.628;2023-03-23T01:04:46;9.27;;;3.33;;
18887;SDS011;9576;47.792;9.628;2023-03-23T01:07:52;8.13;;;4.30;;
18887;SDS011;9576;47.792;9.628;2023-03-23T01:11:01;8.10;;;3.85;;
18887;SDS011;9576;47.792;9.628;2023-03-23T01:14:04;11.60;;;4.35;;
18887;SDS011;9576;47.792;9.628;2023-03-23T01:17:06;7.50;;;4.22;;
18887;SDS011;9576;47.792;9.628;2023-03-23T01:20:08;8.50;;;4.28;;
18887;SDS011;9576;47.792;9.628;2023-03-23T01:23:11;11.13;;;5.07;;
18887;SDS011;9576;47.792;9.628;2023-03-23T01:26:14;7.65;;;4.32;;
18887;SDS011;9576;47.792;9.628;2023-03-23T01:29:18;9.60;;;4.68;;
18887;SDS011;9576;47.792;9.628;2023-03-23T01:32:20;9.52;;;4.43;;
18887;SDS011;9576;47.792;9.628;2023-03-23T01:35:22;10.43;;;4.68;;
18887;SDS011;9576;47.792;9.628;2023-03-23T01:38:24;23.30;;;5.47;;
18887;SDS011;9576;47.792;9.628;2023-03-23T01:41:27;7.72;;;4.63;;
18887;SDS011;9576;47.792;9.628;2023-03-23T01:51:29;12.88;;;4.93;;
18887;SDS011;9576;47.792;9.628;2023-03-23T01:54:30;12.10;;;4.78;;
18887;SDS011;9576;47.792;9.628;2023-03-23T01:57:35;7.28;;;4.13;;
18887;SDS011;9576;47.792;9.628;2023-03-23T02:00:38;17.75;;;5.07;;
18887;SDS011;9576;47.792;9.628;2023-03-23T02:03:43;9.40;;;4.93;;
18887;SDS011;9576;47.792;9.628;2023-03-23T02:06:48;8.57;;;3.90;;
18887;SDS011;9576;47.792;9.628;2023-03-23T02:09:50;8.40;;;4.25;;
18887;SDS011;9576;47.792;9.628;2023-03-23T02:12:54;7.57;;;4.32;;
18887;SDS011;9576;47.792;9.628;2023-03-23T02:15:59;8.65;;;4.30;;
18887;SDS011;9576;47.792;9.628;2023-03-23T02:22:43;9.55;;;3.83;;
18887;SDS011;9576;47.792;9.628;2023-03-23T02:26:12;11.50;;;4.05;;
18887;SDS011;9576;47.792;9.628;2023-03-23T02:36:23;9.85;;;4.65;;
18887;SDS011;9576;47.792;9.628;2023-03-23T02:39:32;9.05;;;4.47;;
18887;SDS011;9576;47.792;9.628;2023-03-23T02:42:37;6.28;;;3.95;;
18887;SDS011;9576;47.792;9.628;2023-03-23T02:45:41;8.30;;;4.50;;
18887;SDS011;9576;47.792;9.628;2023-03-23T02:48:46;9.20;;;4.88;;
18887;SDS011;9576;47.792;9.628;2023-03-23T02:51:52;11.18;;;4.65;;
18887;SDS011;9576;47.792;9.628;2023-03-23T02:54:57;7.20;;;3.92;;
18887;SDS011;9576;47.792;9.628;2023-03-23T02:58:01;9.35;;;4.60;;
18887;SDS011;9576;47.792;9.628;2023-03-23T03:01:45;5.38;;;3.25;;
18887;SDS011;9576;47.792;9.628;2023-03-23T03:04:52;9.38;;;4.22;;
18887;SDS011;9576;47.792;9.628;2023-03-23T03:08:02;10.73;;;3.92;;
18887;SDS011;9576;47.792;9.628;2023-03-23T03:11:20;19.30;;;5.05;;
18887;SDS011;9576;47.792;9.628;2023-03-23T03:14:26;8.77;;;4.60;;
18887;SDS011;9576;47.792;9.628;2023-03-23T03:17:34;8.57;;;4.40;;
18887;SDS011;9576;47.792;9.628;2023-03-23T03:20:40;11.00;;;5.05;;
18887;SDS011;9576;47.792;9.628;2023-03-23T03:23:47;7.68;;;4.60;;
18887;SDS011;9576;47.792;9.628;2023-03-23T03:26:52;24.83;;;4.93;;
18887;SDS011;9576;47.792;9.628;2023-03-23T03:29:58;6.43;;;4.53;;
18887;SDS011;9576;47.792;9.628;2023-03-23T03:33:03;14.40;;;5.20;;
18887;SDS011;9576;47.792;9.628;2023-03-23T03:36:06;5.70;;;3.95;;
18887;SDS011;9576;47.792;9.628;2023-03-23T03:39:10;9.93;;;4.38;;
18887;SDS011;9576;47.792;9.628;2023-03-23T03:42:15;8.55;;;4.20;;
18887;SDS011;9576;47.792;9.628;2023-03-23T03:45:18;10.90;;;5.35;;
18887;SDS011;9576;47.792;9.628;2023-03-23T03:48:20;10.75;;;3.90;;
18887;SDS011;9576;47.792;9.628;2023-03-23T03:51:22;8.45;;;4.55;;
18887;SDS011;9576;47.792;9.628;2023-03-23T03:54:26;14.18;;;5.50;;
18887;SDS011;9576;47.792;9.628;2023-03-23T03:57:28;8.90;;;4.60;;
18887;SDS011;9576;47.792;9.628;2023-03-23T04:00:30;13.43;;;4.82;;
18887;SDS011;9576;47.792;9.628;2023-03-23T04:03:32;8.15;;;4.97;;
18887;SDS011;9576;47.792;9.628;2023-03-23T04:06:34;7.72;;;4.80;;
18887;SDS011;9576;47.792;9.628;2023-03-23T04:09:39;6.85;;;4.13;;
18887;SDS011;9576;47.792;9.628;2023-03-23T04:12:41;8.63;;;4.05;;
18887;SDS011;9576;47.792;9.628;2023-03-23T04:15:43;11.88;;;5.25;;
18887;SDS011;9576;47.792;9.628;2023-03-23T04:18:45;14.27;;;5.72;;
18887;SDS011;9576;47.792;9.628;2023-03-23T04:21:48;13.43;;;5.03;;
18887;SDS011;9576;47.792;9.628;2023-03-23T04:24:51;11.75;;;5.03;;
18887;SDS011;9576;47.792;9.628;2023-03-23T04:27:53;8.45;;;4.63;;
18887;SDS011;9576;47.792;9.628;2023-03-23T04:30:55;6.88;;;4.25;;
18887;SDS011;9576;47.792;9.628;2023-03-23T04:34:00;10.57;;;4.53;;
18887;SDS011;9576;47.792;9.628;2023-03-23T04:37:03;10.65;;;4.03;;
18887;SDS011;9576;47.792;9.628;2023-03-23T04:40:07;8.50;;;4.43;;
18887;SDS011;9576;47.792;9.628;2023-03-23T04:43:13;13.80;;;5.10;;
18887;SDS011;9576;47.792;9.628;2023-03-23T04:46:15;9.13;;;4.60;;
18887;SDS011;9576;47.792;9.628;2023-03-23T04:49:18;12.43;;;5.63;;
18887;SDS011;9576;47.792;9.628;2023-03-23T04:52:21;12.02;;;5.05;;
18887;SDS011;9576;47.792;9.628;2023-03-23T04:55:26;13.55;;;5.00;;
18887;SDS011;9576;47.792;9.628;2023-03-23T04:58:28;19.63;;;5.93;;
18887;SDS011;9576;47.792;9.628;2023-03-23T05:01:33;17.17;;;5.20;;
18887;SDS011;9576;47.792;9.628;2023-03-23T05:04:36;9.98;;;4.95;;
18887;SDS011;9576;47.792;9.628;2023-03-23T05:07:38;9.18;;;5.47;;
18887;SDS011;9576;47.792;9.628;2023-03-23T05:10:42;13.93;;;6.20;;
18887;SDS011;9576;47.792;9.628;2023-03-23T05:13:50;9.70;;;5.05;;
18887;SDS011;9576;47.792;9.628;2023-03-23T05:16:52;10.13;;;4.65;;
18887;SDS011;9576;47.792;9.628;2023-03-23T05:19:54;9.23;;;4.88;;
18887;SDS011;9576;47.792;9.628;2023-03-23T05:22:56;24.20;;;5.75;;
18887;SDS011;9576;47.792;9.628;2023-03-23T05:26:00;9.82;;;5.47;;
18887;SDS011;9576;47.792;9.628;2023-03-23T05:29:02;11.98;;;5.72;;
18887;SDS011;9576;47.792;9.628;2023-03-23T05:32:05;15.07;;;5.72;;
18887;SDS011;9576;47.792;9.628;2023-03-23T05:35:07;14.23;;;5.25;;
18887;SDS011;9576;47.792;9.628;2023-03-23T05:38:09;9.85;;;5.53;;
18887;SDS011;9576;47.792;9.628;2023-03-23T05:41:12;11.10;;;5.72;;
18887;SDS011;9576;47.792;9.628;2023-03-23T05:44:14;11.95;;;5.00;;
18887;SDS011;9576;47.792;9.628;2023-03-23T05:47:16;10.98;;;5.53;;
18887;SDS011;9576;47.792;9.628;2023-03-23T05:50:18;20.33;;;6.10;;
18887;SDS011;9576;47.792;9.628;2023-03-23T05:53:21;14.90;;;5.80;;
18887;SDS011;9576;47.792;9.628;2023-03-23T05:56:24;10.05;;;5.68;;
18887;SDS011;9576;47.792;9.628;2023-03-23T05:59:26;18.15;;;6.07;;
18887;SDS011;9576;47.792;9.628;2023-03-23T06:02:28;10.80;;;5.40;;
18887;SDS011;9576;47.792;9.628;2023-03-23T06:05:31;20.05;;;6.85;;
18887;SDS011;9576;47.792;9.628;2023-03-23T06:08:33;11.13;;;6.55;;
18887;SDS011;9576;47.792;9.628;2023-03-23T06:11:38;13.87;;;5.37;;
18887;SDS011;9576;47.792;9.628;2023-03-23T06:14:40;15.00;;;6.57;;
18887;SDS011;9576;47.792;9.628;2023-03-23T06:17:42;20.92;;;6.32;;
18887;SDS011;9576;47.792;9.628;2023-03-23T06:20:44;11.52;;;6.35;;
18887;SDS011;9576;47.792;9.628;2023-03-23T06:23:46;16.13;;;7.32;;
18887;SDS011;9576;47.792;9.628;2023-03-23T06:26:50;17.83;;;6.30;;
18887;SDS011;9576;47.792;9.628;2023-03-23T06:29:52;14.13;;;6.25;;
18887;SDS011;9576;47.792;9.628;2023-03-23T06:32:56;9.90;;;5.72;;
18887;SDS011;9576;47.792;9.628;2023-03-23T06:35:58;9.63;;;4.97;;
18887;SDS011;9576;47.792;9.628;2023-03-23T06:39:00;9.48;;;4.82;;
18887;SDS011;9576;47.792;9.628;2023-03-23T06:42:08;10.77;;;4.80;;
18887;SDS011;9576;47.792;9.628;2023-03-23T06:45:11;10.73;;;5.22;;
18887;SDS011;9576;47.792;9.628;2023-03-23T06:48:13;8.90;;;4.13;;
18887;SDS011;9576;47.792;9.628;2023-03-23T06:51:15;6.88;;;4.15;;
18887;SDS011;9576;47.792;9.628;2023-03-23T06:54:17;22.38;;;4.80;;
18887;SDS011;9576;47.792;9.628;2023-03-23T06:57:21;9.57;;;4.60;;
18887;SDS011;9576;47.792;9.628;2023-03-23T07:00:24;6.87;;;4.37;;
18887;SDS011;9576;47.792;9.628;2023-03-23T07:03:26;8.98;;;4.15;;
18887;SDS011;9576;47.792;9.628;2023-03-23T07:06:28;14.25;;;4.32;;
18887;SDS011;9576;47.792;9.628;2023-03-23T07:09:30;18.45;;;5.07;;
18887;SDS011;9576;47.792;9.628;2023-03-23T07:12:33;9.95;;;4.68;;
18887;SDS011;9576;47.792;9.628;2023-03-23T07:15:35;8.10;;;4.30;;
18887;SDS011;9576;47.792;9.628;2023-03-23T07:18:38;11.40;;;3.78;;
18887;SDS011;9576;47.792;9.628;2023-03-23T07:21:40;6.78;;;4.00;;
18887;SDS011;9576;47.792;9.628;2023-03-23T07:24:42;8.00;;;3.35;;
18887;SDS011;9576;47.792;9.628;2023-03-23T07:27:45;7.07;;;3.80;;
18887;SDS011;9576;47.792;9.628;2023-03-23T07:30:47;7.05;;;3.58;;
18887;SDS011;9576;47.792;9.628;2023-03-23T07:33:49;9.63;;;3.78;;
18887;SDS011;9576;47.792;9.628;2023-03-23T07:36:51;15.68;;;3.65;;
18887;SDS011;9576;47.792;9.628;2023-03-23T07:39:53;28.08;;;4.18;;
18887;SDS011;9576;47.792;9.628;2023-03-23T07:42:57;16.60;;;4.47;;
18887;SDS011;9576;47.792;9.628;2023-03-23T07:45:59;16.05;;;5.03;;
18887;SDS011;9576;47.792;9.628;2023-03-23T07:49:01;30.20;;;5.63;;
18887;SDS011;9576;47.792;9.628;2023-03-23T07:52:05;7.60;;;4.35;;
18887;SDS011;9576;47.792;9.628;2023-03-23T07:55:08;18.45;;;5.85;;
18887;SDS011;9576;47.792;9.628;2023-03-23T07:58:18;22.02;;;5.40;;
18887;SDS011;9576;47.792;9.628;2023-03-23T08:01:21;13.10;;;4.45;;
18887;SDS011;9576;47.792;9.628;2023-03-23T08:04:23;19.73;;;4.72;;
18887;SDS011;9576;47.792;9.628;2023-03-23T08:07:27;19.13;;;4.00;;
18887;SDS011;9576;47.792;9.628;2023-03-23T08:10:29;30.13;;;5.53;;
18887;SDS011;9576;47.792;9.628;2023-03-23T08:13:33;16.58;;;4.40;;
18887;SDS011;9576;47.792;9.628;2023-03-23T08:16:35;9.07;;;4.75;;
18887;SDS011;9576;47.792;9.628;2023-03-23T08:19:37;10.32;;;4.82;;
18887;SDS011;9576;47.792;9.628;2023-03-23T08:22:40;12.05;;;4.63;;
18887;SDS011;9576;47.792;9.628;2023-03-23T08:25:45;13.10;;;3.75;;
18887;SDS011;9576;47.792;9.628;2023-03-23T08:28:48;11.27;;;3.85;;
18887;SDS011;9576;47.792;9.628;2023-03-23T08:31:50;11.70;;;3.53;;
18887;SDS011;9576;47.792;9.628;2023-03-23T08:34:53;6.93;;;2.53;;
18887;SDS011;9576;47.792;9.628;2023-03-23T08:37:56;7.72;;;2.78;;
18887;SDS011;9576;47.792;9.628;2023-03-23T08:40:58;4.93;;;3.20;;
18887;SDS011;9576;47.792;9.628;2023-03-23T08:44:02;4.50;;;2.50;;
18887;SDS011;9576;47.792;9.628;2023-03-23T08:50:07;4.85;;;2.60;;
18887;SDS011;9576;47.792;9.628;2023-03-23T08:53:12;5.05;;;2.30;;
18887;SDS011;9576;47.792;9.628;2023-03-23T08:56:14;3.55;;;2.45;;
18887;SDS011;9576;47.792;9.628;2023-03-23T08:59:17;11.88;;;2.75;;
18887;SDS011;9576;47.792;9.628;2023-03-23T09:02:19;4.25;;;2.65;;
18887;SDS011;9576;47.792;9.628;2023-03-23T09:05:24;3.83;;;2.58;;
18887;SDS011;9576;47.792;9.628;2023-03-23T09:08:28;3.53;;;2.43;;
18887;SDS011;9576;47.792;9.628;2023-03-23T09:11:32;6.35;;;2.78;;
18887;SDS011;9576;47.792;9.628;2023-03-23T09:14:35;5.03;;;2.55;;
18887;SDS011;9576;47.792;9.628;2023-03-23T09:17:38;7.80;;;2.17;;
18887;SDS011;9576;47.792;9.628;2023-03-23T09:20:41;3.38;;;2.00;;
18887;SDS011;9576;47.792;9.628;2023-03-23T09:23:43;2.90;;;2.00;;
18887;SDS011;9576;47.792;9.628;2023-03-23T09:26:45;6.93;;;2.15;;
18887;SDS011;9576;47.792;9.628;2023-03-23T09:29:49;9.82;;;2.65;;
18887;SDS011;9576;47.792;9.628;2023-03-23T09:32:51;14.13;;;2.30;;
18887;SDS011;9576;47.792;9.628;2023-03-23T09:35:53;6.30;;;2.08;;
18887;SDS011;9576;47.792;9.628;2023-03-23T09:38:55;15.38;;;2.40;;
18887;SDS011;9576;47.792;9.628;2023-03-23T09:42:00;5.82;;;2.42;;
18887;SDS011;9576;47.792;9.628;2023-03-23T09:45:15;12.07;;;2.70;;
18887;SDS011;9576;47.792;9.628;2023-03-23T09:48:26;4.00;;;2.03;;
18887;SDS011;9576;47.792;9.628;2023-03-23T09:51:47;8.00;;;2.17;;
18887;SDS011;9576;47.792;9.628;2023-03-23T09:54:52;4.70;;;2.25;;
18887;SDS011;9576;47.792;9.628;2023-03-23T09:57:59;10.98;;;2.30;;
18887;SDS011;9576;47.792;9.628;2023-03-23T10:01:06;4.47;;;2.33;;
18887;SDS011;9576;47.792;9.628;2023-03-23T10:04:16;19.98;;;3.15;;
18887;SDS011;9576;47.792;9.628;2023-03-23T10:07:26;20.08;;;2.50;;
18887;SDS011;9576;47.792;9.628;2023-03-23T10:10:31;2.83;;;1.35;;
18887;SDS011;9576;47.792;9.628;2023-03-23T10:13:48;4.15;;;2.60;;
18887;SDS011;9576;47.792;9.628;2023-03-23T10:17:02;4.63;;;2.40;;
18887;SDS011;9576;47.792;9.628;2023-03-23T10:20:15;6.85;;;2.22;;
18887;SDS011;9576;47.792;9.628;2023-03-23T10:23:34;2.85;;;1.83;;
18887;SDS011;9576;47.792;9.628;2023-03-23T10:26:46;6.03;;;2.53;;
18887;SDS011;9576;47.792;9.628;2023-03-23T10:29:55;9.60;;;2.33;;
18887;SDS011;9576;47.792;9.628;2023-03-23T10:33:04;6.35;;;2.17;;
18887;SDS011;9576;47.792;9.628;2023-03-23T10:36:14;4.45;;;1.98;;
18887;SDS011;9576;47.792;9.628;2023-03-23T10:39:21;31.80;;;3.13;;
18887;SDS011;9576;47.792;9.628;2023-03-23T10:42:27;13.85;;;3.75;;
18887;SDS011;9576;47.792;9.628;2023-03-23T10:45:31;7.00;;;2.00;;
18887;SDS011;9576;47.792;9.628;2023-03-23T10:48:37;8.07;;;2.47;;
18887;SDS011;9576;47.792;9.628;2023-03-23T10:51:46;5.57;;;1.85;;
18887;SDS011;9576;47.792;9.628;2023-03-23T10:54:56;7.50;;;1.65;;
18887;SDS011;9576;47.792;9.628;2023-03-23T10:58:00;4.75;;;1.80;;
18887;SDS011;9576;47.792;9.628;2023-03-23T11:01:03;6.20;;;2.17;;
18887;SDS011;9576;47.792;9.628;2023-03-23T11:04:11;11.20;;;1.52;;
18887;SDS011;9576;47.792;9.628;2023-03-23T11:07:17;3.42;;;1.88;;
18887;SDS011;9576;47.792;9.628;2023-03-23T11:10:22;6.75;;;2.28;;
18887;SDS011;9576;47.792;9.628;2023-03-23T11:13:27;7.53;;;1.40;;
18887;SDS011;9576;47.792;9.628;2023-03-23T11:16:32;3.95;;;1.75;;
18887;SDS011;9576;47.792;9.628;2023-03-23T11:19:37;3.40;;;1.65;;
18887;SDS011;9576;47.792;9.628;2023-03-23T11:22:39;5.20;;;1.70;;
18887;SDS011;9576;47.792;9.628;2023-03-23T11:25:50;7.18;;;2.05;;
18887;SDS011;9576;47.792;9.628;2023-03-23T11:28:56;5.88;;;2.72;;
18887;SDS011;9576;47.792;9.628;2023-03-23T11:32:03;2.63;;;1.23;;
18887;SDS011;9576;47.792;9.628;2023-03-23T11:35:15;3.75;;;1.60;;
18887;SDS011;9576;47.792;9.628;2023-03-23T11:38:20;3.42;;;1.70;;
18887;SDS011;9576;47.792;9.628;2023-03-23T11:41:29;3.00;;;1.55;;
18887;SDS011;9576;47.792;9.628;2023-03-23T11:44:34;4.20;;;1.63;;
18887;SDS011;9576;47.792;9.628;2023-03-23T11:47:43;9.48;;;1.48;;
18887;SDS011;9576;47.792;9.628;2023-03-23T11:50:53;3.50;;;1.58;;
18887;SDS011;9576;47.792;9.628;2023-03-23T11:53:58;6.65;;;1.73;;
18887;SDS011;9576;47.792;9.628;2023-03-23T11:57:06;8.18;;;1.60;;
18887;SDS011;9576;47.792;9.628;2023-03-23T12:00:12;3.13;;;1.55;;
18887;SDS011;9576;47.792;9.628;2023-03-23T12:03:15;8.52;;;1.90;;
18887;SDS011;9576;47.792;9.628;2023-03-23T12:06:36;6.28;;;2.17;;
18887;SDS011;9576;47.792;9.628;2023-03-23T12:09:47;1.85;;;1.42;;
18887;SDS011;9576;47.792;9.628;2023-03-23T12:13:08;2.78;;;1.77;;
18887;SDS011;9576;47.792;9.628;2023-03-23T12:16:22;4.95;;;1.80;;
18887;SDS011;9576;47.792;9.628;2023-03-23T12:19:34;3.05;;;1.58;;
18887;SDS011;9576;47.792;9.628;2023-03-23T12:22:49;6.63;;;1.80;;
18887;SDS011;9576;47.792;9.628;2023-03-23T12:29:27;1.98;;;1.30;;
18887;SDS011;9576;47.792;9.628;2023-03-23T12:32:42;3.28;;;1.73;;
18887;SDS011;9576;47.792;9.628;2023-03-23T12:35:59;3.22;;;1.70;;
18887;SDS011;9576;47.792;9.628;2023-03-23T12:39:25;5.53;;;2.10;;
18887;SDS011;9576;47.792;9.628;2023-03-23T12:42:49;8.68;;;5.10;;
18887;SDS011;9576;47.792;9.628;2023-03-23T12:46:01;5.70;;;3.22;;
18887;SDS011;9576;47.792;9.628;2023-03-23T12:49:30;10.25;;;1.88;;
18887;SDS011;9576;47.792;9.628;2023-03-23T12:52:37;3.35;;;1.40;;
18887;SDS011;9576;47.792;9.628;2023-03-23T12:55:47;4.10;;;1.80;;
18887;SDS011;9576;47.792;9.628;2023-03-23T12:58:55;5.72;;;2.10;;
18887;SDS011;9576;47.792;9.628;2023-03-23T13:02:04;3.05;;;1.58;;
18887;SDS011;9576;47.792;9.628;2023-03-23T13:05:24;2.97;;;2.03;;
18887;SDS011;9576;47.792;9.628;2023-03-23T13:08:31;2.70;;;1.60;;
18887;SDS011;9576;47.792;9.628;2023-03-23T13:11:39;3.78;;;1.48;;
18887;SDS011;9576;47.792;9.628;2023-03-23T13:14:45;3.53;;;1.95;;
18887;SDS011;9576;47.792;9.628;2023-03-23T13:17:54;4.53;;;1.67;;
18887;SDS011;9576;47.792;9.628;2023-03-23T13:21:06;5.35;;;1.42;;
18887;SDS011;9576;47.792;9.628;2023-03-23T13:24:15;3.88;;;1.67;;
18887;SDS011;9576;47.792;9.628;2023-03-23T13:27:24;2.55;;;1.42;;
18887;SDS011;9576;47.792;9.628;2023-03-23T13:30:28;2.75;;;1.63;;
18887;SDS011;9576;47.792;9.628;2023-03-23T13:33:34;4.25;;;1.73;;
18887;SDS011;9576;47.792;9.628;2023-03-23T13:36:37;3.70;;;1.40;;
18887;SDS011;9576;47.792;9.628;2023-03-23T13:39:47;2.38;;;1.30;;
18887;SDS011;9576;47.792;9.628;2023-03-23T13:42:55;5.75;;;2.17;;
18887;SDS011;9576;47.792;9.628;2023-03-23T13:46:06;2.38;;;1.25;;
18887;SDS011;9576;47.792;9.628;2023-03-23T13:49:17;5.03;;;1.40;;
18887;SDS011;9576;47.792;9.628;2023-03-23T13:52:24;2.65;;;1.67;;
18887;SDS011;9576;47.792;9.628;2023-03-23T13:55:39;3.55;;;1.63;;
18887;SDS011;9576;47.792;9.628;2023-03-23T13:58:45;3.58;;;1.67;;
18887;SDS011;9576;47.792;9.628;2023-03-23T14:01:48;3.33;;;2.13;;
18887;SDS011;9576;47.792;9.628;2023-03-23T14:04:51;2.85;;;1.55;;
18887;SDS011;9576;47.792;9.628;2023-03-23T14:07:55;5.47;;;1.90;;
18887;SDS011;9576;47.792;9.628;2023-03-23T14:11:00;3.25;;;1.52;;
18887;SDS011;9576;47.792;9.628;2023-03-23T14:14:05;3.90;;;1.90;;
18887;SDS011;9576;47.792;9.628;2023-03-23T14:17:11;3.83;;;1.80;;
18887;SDS011;9576;47.792;9.628;2023-03-23T14:20:19;7.88;;;1.70;;
18887;SDS011;9576;47.792;9.628;2023-03-23T14:23:26;6.10;;;1.77;;
18887;SDS011;9576;47.792;9.628;2023-03-23T14:26:28;10.70;;;1.50;;
18887;SDS011;9576;47.792;9.628;2023-03-23T14:29:31;5.43;;;2.17;;
18887;SDS011;9576;47.792;9.628;2023-03-23T14:32:33;3.88;;;1.65;;
18887;SDS011;9576;47.792;9.628;2023-03-23T14:35:36;3.78;;;2.00;;
18887;SDS011;9576;47.792;9.628;2023-03-23T14:41:42;6.00;;;2.05;;
18887;SDS011;9576;47.792;9.628;2023-03-23T14:44:46;3.53;;;2.22;;
18887;SDS011;9576;47.792;9.628;2023-03-23T14:47:51;4.20;;;2.05;;
18887;SDS011;9576;47.792;9.628;2023-03-23T14:50:57;9.48;;;2.00;;
18887;SDS011;9576;47.792;9.628;2023-03-23T14:54:07;7.35;;;2.33;;
18887;SDS011;9576;47.792;9.628;2023-03-23T14:57:11;6.57;;;1.67;;
18887;SDS011;9576;47.792;9.628;2023-03-23T15:00:17;3.05;;;1.80;;
18887;SDS011;9576;47.792;9.628;2023-03-23T15:03:20;3.38;;;1.63;;
18887;SDS011;9576;47.792;9.628;2023-03-23T15:06:26;4.07;;;2.30;;
18887;SDS011;9576;47.792;9.628;2023-03-23T15:09:32;3.08;;;2.00;;
18887;SDS011;9576;47.792;9.628;2023-03-23T15:12:39;4.13;;;1.83;;
18887;SDS011;9576;47.792;9.628;2023-03-23T15:15:45;3.08;;;1.80;;
18887;SDS011;9576;47.792;9.628;2023-03-23T15:18:49;4.65;;;1.88;;
18887;SDS011;9576;47.792;9.628;2023-03-23T15:21:54;5.20;;;2.45;;
18887;SDS011;9576;47.792;9.628;2023-03-23T15:25:02;3.08;;;1.65;;
18887;SDS011;9576;47.792;9.628;2023-03-23T15:28:14;3.03;;;1.77;;
18887;SDS011;9576;47.792;9.628;2023-03-23T15:31:19;3.28;;;2.03;;
18887;SDS011;9576;47.792;9.628;2023-03-23T15:34:28;5.28;;;1.92;;
18887;SDS011;9576;47.792;9.628;2023-03-23T15:37:41;9.45;;;2.22;;
18887;SDS011;9576;47.792;9.628;2023-03-23T15:40:45;7.60;;;2.58;;
18887;SDS011;9576;47.792;9.628;2023-03-23T15:43:51;3.05;;;1.67;;
18887;SDS011;9576;47.792;9.628;2023-03-23T15:47:02;7.38;;;2.88;;
18887;SDS011;9576;47.792;9.628;2023-03-23T15:50:14;7.70;;;2.17;;
18887;SDS011;9576;47.792;9.628;2023-03-23T15:53:23;6.40;;;2.42;;
18887;SDS011;9576;47.792;9.628;2023-03-23T15:56:28;3.83;;;1.95;;
18887;SDS011;9576;47.792;9.628;2023-03-23T15:59:31;6.10;;;2.15;;
18887;SDS011;9576;47.792;9.628;2023-03-23T16:02:34;7.75;;;2.22;;
18887;SDS011;9576;47.792;9.628;2023-03-23T16:05:36;5.90;;;2.20;;
18887;SDS011;9576;47.792;9.628;2023-03-23T16:08:39;2.92;;;1.90;;
18887;SDS011;9576;47.792;9.628;2023-03-23T16:11:41;2.95;;;1.95;;
18887;SDS011;9576;47.792;9.628;2023-03-23T16:14:43;3.53;;;1.90;;
18887;SDS011;9576;47.792;9.628;2023-03-23T16:17:46;5.38;;;1.90;;
18887;SDS011;9576;47.792;9.628;2023-03-23T16:20:49;6.57;;;2.58;;
18887;SDS011;9576;47.792;9.628;2023-03-23T16:23:51;6.97;;;3.00;;
18887;SDS011;9576;47.792;9.628;2023-03-23T16:26:53;4.72;;;1.98;;
18887;SDS011;9576;47.792;9.628;2023-03-23T16:29:55;6.22;;;2.70;;
18887;SDS011;9576;47.792;9.628;2023-03-23T16:33:00;4.85;;;2.85;;
18887;SDS011;9576;47.792;9.628;2023-03-23T16:36:03;12.80;;;3.03;;
18887;SDS011;9576;47.792;9.628;2023-03-23T16:39:05;4.85;;;2.72;;
18887;SDS011;9576;47.792;9.628;2023-03-23T16:42:07;6.70;;;2.20;;
18887;SDS011;9576;47.792;9.628;2023-03-23T16:45:09;5.97;;;2.50;;
18887;SDS011;9576;47.792;9.628;2023-03-23T16:48:14;5.88;;;2.53;;
18887;SDS011;9576;47.792;9.628;2023-03-23T16:51:17;8.90;;;2.50;;
18887;SDS011;9576;47.792;9.628;2023-03-23T16:54:18;8.38;;;2.30;;
18887;SDS011;9576;47.792;9.628;2023-03-23T16:57:21;7.50;;;2.55;;
18887;SDS011;9576;47.792;9.628;2023-03-23T17:00:23;5.72;;;2.30;;
18887;SDS011;9576;47.792;9.628;2023-03-23T17:03:27;8.88;;;2.80;;
18887;SDS011;9576;47.792;9.628;2023-03-23T17:06:29;5.05;;;2.42;;
18887;SDS011;9576;47.792;9.628;2023-03-23T17:09:32;3.95;;;2.13;;
18887;SDS011;9576;47.792;9.628;2023-03-23T17:12:34;4.90;;;2.53;;
18887;SDS011;9576;47.792;9.628;2023-03-23T17:15:36;6.53;;;2.38;;
18887;SDS011;9576;47.792;9.628;2023-03-23T17:18:41;10.70;;;2.85;;
18887;SDS011;9576;47.792;9.628;2023-03-23T17:21:43;9.27;;;2.55;;
18887;SDS011;9576;47.792;9.628;2023-03-23T17:24:45;5.57;;;2.28;;
18887;SDS011;9576;47.792;9.628;2023-03-23T17:27:47;4.97;;;2.38;;
18887;SDS011;9576;47.792;9.628;2023-03-23T17:30:51;6.78;;;2.65;;
18887;SDS011;9576;47.792;9.628;2023-03-23T17:33:54;9.15;;;2.47;;
18887;SDS011;9576;47.792;9.628;2023-03-23T17:36:56;6.90;;;3.13;;
18887;SDS011;9576;47.792;9.628;2023-03-23T17:39:58;11.95;;;4.32;;
18887;SDS011;9576;47.792;9.628;2023-03-23T17:43:00;6.05;;;3.10;;
18887;SDS011;9576;47.792;9.628;2023-03-23T17:46:02;4.20;;;2.30;;
18887;SDS011;9576;47.792;9.628;2023-03-23T17:49:07;3.35;;;2.13;;
18887;SDS011;9576;47.792;9.628;2023-03-23T17:52:08;4.25;;;2.53;;
18887;SDS011;9576;47.792;9.628;2023-03-23T17:55:10;12.95;;;2.78;;
18887;SDS011;9576;47.792;9.628;2023-03-23T17:58:12;5.05;;;2.38;;
18887;SDS011;9576;47.792;9.628;2023-03-23T18:01:15;7.40;;;2.72;;
18887;SDS011;9576;47.792;9.628;2023-03-23T18:04:19;6.03;;;2.97;;
18887;SDS011;9576;47.792;9.628;2023-03-23T18:07:21;7.50;;;3.50;;
18887;SDS011;9576;47.792;9.628;2023-03-23T18:10:23;6.35;;;2.78;;
18887;SDS011;9576;47.792;9.628;2023-03-23T18:13:25;6.82;;;2.63;;
18887;SDS011;9576;47.792;9.628;2023-03-23T18:16:29;3.33;;;2.30;;
18887;SDS011;9576;47.792;9.628;2023-03-23T18:19:32;7.07;;;2.28;;
18887;SDS011;9576;47.792;9.628;2023-03-23T18:22:35;6.65;;;3.88;;
18887;SDS011;9576;47.792;9.628;2023-03-23T18:25:37;21.25;;;7.10;;
18887;SDS011;9576;47.792;9.628;2023-03-23T18:28:39;9.07;;;4.35;;
18887;SDS011;9576;47.792;9.628;2023-03-23T18:31:41;15.15;;;5.40;;
18887;SDS011;9576;47.792;9.628;2023-03-23T18:34:44;11.82;;;5.30;;
18887;SDS011;9576;47.792;9.628;2023-03-23T18:37:47;49.72;;;16.17;;
18887;SDS011;9576;47.792;9.628;2023-03-23T18:40:49;22.13;;;7.38;;
18887;SDS011;9576;47.792;9.628;2023-03-23T18:43:52;31.33;;;11.80;;
18887;SDS011;9576;47.792;9.628;2023-03-23T18:46:54;39.83;;;13.73;;
18887;SDS011;9576;47.792;9.628;2023-03-23T18:49:57;39.10;;;13.98;;
18887;SDS011;9576;47.792;9.628;2023-03-23T18:53:00;40.28;;;12.68;;
18887;SDS011;9576;47.792;9.628;2023-03-23T18:56:03;20.98;;;7.63;;
18887;SDS011;9576;47.792;9.628;2023-03-23T18:59:06;22.45;;;9.55;;
18887;SDS011;9576;47.792;9.628;2023-03-23T19:02:08;19.15;;;8.32;;
18887;SDS011;9576;47.792;9.628;2023-03-23T19:05:12;16.52;;;7.75;;
18887;SDS011;9576;47.792;9.628;2023-03-23T19:08:15;15.93;;;6.95;;
18887;SDS011;9576;47.792;9.628;2023-03-23T19:11:17;13.18;;;5.80;;
18887;SDS011;9576;47.792;9.628;2023-03-23T19:14:20;13.68;;;6.43;;